sensor_id;sensor_type;location;lat;lon;timestamp;temperature;humidity
3466;DHT22;1747;48.884;9.160;2023-05-31T00:01:21;17.90;63.50
3466;DHT22;1747;48.884;9.160;2023-05-31T00:03:49;17.90;63.40
3466;DHT22;1747;48.884;9.160;2023-05-31T00:06:16;17.80;63.10
3466;DHT22;1747;48.884;9.160;2023-05-31T00:08:42;17.80;63.20
3466;DHT22;1747;48.884;9.160;2023-05-31T00:11:09;17.80;63.10
3466;DHT22;1747;48.884;9.160;2023-05-31T00:13:36;17.90;62.70
3466;DHT22;1747;48.884;9.160;2023-05-31T00:16:04;17.80;62.70
3466;DHT22;1747;48.884;9.160;2023-05-31T00:18:31;17.90;62.70
3466;DHT22;1747;48.884;9.160;2023-05-31T00:20:59;17.90;62.60
3466;DHT22;1747;48.884;9.160;2023-05-31T00:23:26;17.80;62.90
3466;DHT22;1747;48.884;9.160;2023-05-31T00:25:53;17.80;62.90
3466;DHT22;1747;48.884;9.160;2023-05-31T00:28:19;17.80;62.80
3466;DHT22;1747;48.884;9.160;2023-05-31T00:30:46;17.80;63.10
3466;DHT22;1747;48.884;9.160;2023-05-31T00:33:13;17.70;63.00
3466;DHT22;1747;48.884;9.160;2023-05-31T00:35:40;17.70;62.90
3466;DHT22;1747;48.884;9.160;2023-05-31T00:38:08;17.70;63.20
3466;DHT22;1747;48.884;9.160;2023-05-31T00:40:35;17.70;62.90
3466;DHT22;1747;48.884;9.160;2023-05-31T00:43:02;17.60;63.10
3466;DHT22;1747;48.884;9.160;2023-05-31T00:45:28;17.60;63.20
3466;DHT22;1747;48.884;9.160;2023-05-31T00:47:58;17.60;63.40
3466;DHT22;1747;48.884;9.160;2023-05-31T00:50:26;17.60;63.40
3466;DHT22;1747;48.884;9.160;2023-05-31T00:52:54;17.60;63.20
3466;DHT22;1747;48.884;9.160;2023-05-31T00:55:24;17.60;63.40
3466;DHT22;1747;48.884;9.160;2023-05-31T00:57:51;17.50;63.60
3466;DHT22;1747;48.884;9.160;2023-05-31T01:00:18;17.40;63.90
3466;DHT22;1747;48.884;9.160;2023-05-31T01:02:45;17.40;63.90
3466;DHT22;1747;48.884;9.160;2023-05-31T01:05:12;17.30;63.90
3466;DHT22;1747;48.884;9.160;2023-05-31T01:07:39;17.30;64.30
3466;DHT22;1747;48.884;9.160;2023-05-31T01:10:07;17.20;64.30
3466;DHT22;1747;48.884;9.160;2023-05-31T01:12:43;17.20;64.70
3466;DHT22;1747;48.884;9.160;2023-05-31T01:15:16;17.20;64.80
3466;DHT22;1747;48.884;9.160;2023-05-31T01:17:49;17.10;65.70
3466;DHT22;1747;48.884;9.160;2023-05-31T01:20:17;17.00;65.70
3466;DHT22;1747;48.884;9.160;2023-05-31T01:22:55;17.00;66.30
3466;DHT22;1747;48.884;9.160;2023-05-31T01:25:35;16.90;66.10
3466;DHT22;1747;48.884;9.160;2023-05-31T01:28:09;16.80;66.30
3466;DHT22;1747;48.884;9.160;2023-05-31T01:30:38;16.80;66.60
3466;DHT22;1747;48.884;9.160;2023-05-31T01:33:07;16.70;66.20
3466;DHT22;1747;48.884;9.160;2023-05-31T01:35:35;16.70;66.50
3466;DHT22;1747;48.884;9.160;2023-05-31T01:38:01;16.70;66.60
3466;DHT22;1747;48.884;9.160;2023-05-31T01:40:28;16.70;66.40
3466;DHT22;1747;48.884;9.160;2023-05-31T01:42:56;16.60;66.30
3466;DHT22;1747;48.884;9.160;2023-05-31T01:45:26;16.70;65.90
3466;DHT22;1747;48.884;9.160;2023-05-31T01:48:00;16.70;65.90
3466;DHT22;1747;48.884;9.160;2023-05-31T01:50:28;16.60;66.30
3466;DHT22;1747;48.884;9.160;2023-05-31T01:52:55;16.60;66.30
3466;DHT22;1747;48.884;9.160;2023-05-31T01:55:22;16.60;66.30
3466;DHT22;1747;48.884;9.160;2023-05-31T01:57:51;16.60;67.00
3466;DHT22;1747;48.884;9.160;2023-05-31T02:00:19;16.50;67.40
3466;DHT22;1747;48.884;9.160;2023-05-31T02:02:47;16.50;67.80
3466;DHT22;1747;48.884;9.160;2023-05-31T02:05:14;16.40;68.00
3466;DHT22;1747;48.884;9.160;2023-05-31T02:07:42;16.40;68.00
3466;DHT22;1747;48.884;9.160;2023-05-31T02:10:11;16.30;68.00
3466;DHT22;1747;48.884;9.160;2023-05-31T02:12:38;16.30;68.00
3466;DHT22;1747;48.884;9.160;2023-05-31T02:15:07;16.30;67.70
3466;DHT22;1747;48.884;9.160;2023-05-31T02:17:36;16.30;67.70
3466;DHT22;1747;48.884;9.160;2023-05-31T02:20:08;16.30;68.10
3466;DHT22;1747;48.884;9.160;2023-05-31T02:22:38;16.30;68.30
3466;DHT22;1747;48.884;9.160;2023-05-31T02:25:06;16.20;68.40
3466;DHT22;1747;48.884;9.160;2023-05-31T02:27:33;16.20;68.40
3466;DHT22;1747;48.884;9.160;2023-05-31T02:30:00;16.20;68.80
3466;DHT22;1747;48.884;9.160;2023-05-31T02:32:28;16.10;69.70
3466;DHT22;1747;48.884;9.160;2023-05-31T02:34:54;16.10;68.90
3466;DHT22;1747;48.884;9.160;2023-05-31T02:37:22;16.10;69.00
3466;DHT22;1747;48.884;9.160;2023-05-31T02:39:49;16.00;69.40
3466;DHT22;1747;48.884;9.160;2023-05-31T02:42:18;16.00;69.80
3466;DHT22;1747;48.884;9.160;2023-05-31T02:44:46;15.90;70.00
3466;DHT22;1747;48.884;9.160;2023-05-31T02:47:12;15.90;70.30
3466;DHT22;1747;48.884;9.160;2023-05-31T02:49:39;15.80;70.00
3466;DHT22;1747;48.884;9.160;2023-05-31T02:52:06;15.80;70.90
3466;DHT22;1747;48.884;9.160;2023-05-31T02:54:34;15.70;71.30
3466;DHT22;1747;48.884;9.160;2023-05-31T02:57:01;15.60;71.20
3466;DHT22;1747;48.884;9.160;2023-05-31T02:59:28;15.60;71.30
3466;DHT22;1747;48.884;9.160;2023-05-31T03:01:55;15.50;72.00
3466;DHT22;1747;48.884;9.160;2023-05-31T03:04:22;15.40;71.10
3466;DHT22;1747;48.884;9.160;2023-05-31T03:06:49;15.40;70.50
3466;DHT22;1747;48.884;9.160;2023-05-31T03:09:15;15.40;70.50
3466;DHT22;1747;48.884;9.160;2023-05-31T03:11:44;15.40;70.50
3466;DHT22;1747;48.884;9.160;2023-05-31T03:14:11;15.40;70.60
3466;DHT22;1747;48.884;9.160;2023-05-31T03:16:38;15.40;70.50
3466;DHT22;1747;48.884;9.160;2023-05-31T03:19:05;15.30;71.70
3466;DHT22;1747;48.884;9.160;2023-05-31T03:21:32;15.30;71.00
3466;DHT22;1747;48.884;9.160;2023-05-31T03:23:58;15.30;70.50
3466;DHT22;1747;48.884;9.160;2023-05-31T03:26:25;15.30;71.20
3466;DHT22;1747;48.884;9.160;2023-05-31T03:28:53;15.30;70.70
3466;DHT22;1747;48.884;9.160;2023-05-31T03:31:20;15.40;70.30
3466;DHT22;1747;48.884;9.160;2023-05-31T03:33:47;15.40;70.50
3466;DHT22;1747;48.884;9.160;2023-05-31T03:36:14;15.40;70.50
3466;DHT22;1747;48.884;9.160;2023-05-31T03:38:41;15.40;70.30
3466;DHT22;1747;48.884;9.160;2023-05-31T03:41:08;15.40;70.10
3466;DHT22;1747;48.884;9.160;2023-05-31T03:43:34;15.40;70.00
3466;DHT22;1747;48.884;9.160;2023-05-31T03:46:03;15.40;70.30
3466;DHT22;1747;48.884;9.160;2023-05-31T03:48:29;15.40;70.10
3466;DHT22;1747;48.884;9.160;2023-05-31T03:50:56;15.50;69.90
3466;DHT22;1747;48.884;9.160;2023-05-31T03:53:23;15.40;70.00
3466;DHT22;1747;48.884;9.160;2023-05-31T03:55:50;15.40;70.50
3466;DHT22;1747;48.884;9.160;2023-05-31T03:58:17;15.50;69.80
3466;DHT22;1747;48.884;9.160;2023-05-31T04:00:44;15.60;69.30
3466;DHT22;1747;48.884;9.160;2023-05-31T04:03:14;15.60;69.10
3466;DHT22;1747;48.884;9.160;2023-05-31T04:05:41;15.60;69.30
3466;DHT22;1747;48.884;9.160;2023-05-31T04:08:07;15.70;69.30
3466;DHT22;1747;48.884;9.160;2023-05-31T04:10:34;15.70;69.40
3466;DHT22;1747;48.884;9.160;2023-05-31T04:13:01;15.80;69.30
3466;DHT22;1747;48.884;9.160;2023-05-31T04:15:28;15.80;69.00
3466;DHT22;1747;48.884;9.160;2023-05-31T04:17:55;15.80;69.30
3466;DHT22;1747;48.884;9.160;2023-05-31T04:20:23;15.90;68.90
3466;DHT22;1747;48.884;9.160;2023-05-31T04:22:50;16.00;68.70
3466;DHT22;1747;48.884;9.160;2023-05-31T04:25:18;16.00;68.40
3466;DHT22;1747;48.884;9.160;2023-05-31T04:27:45;16.10;68.40
3466;DHT22;1747;48.884;9.160;2023-05-31T04:30:13;16.10;68.90
3466;DHT22;1747;48.884;9.160;2023-05-31T04:32:40;16.10;68.50
3466;DHT22;1747;48.884;9.160;2023-05-31T04:35:07;16.10;68.40
3466;DHT22;1747;48.884;9.160;2023-05-31T04:37:35;16.20;68.60
3466;DHT22;1747;48.884;9.160;2023-05-31T04:40:03;16.20;68.80
3466;DHT22;1747;48.884;9.160;2023-05-31T04:42:30;16.20;69.50
3466;DHT22;1747;48.884;9.160;2023-05-31T04:44:58;16.20;69.50
3466;DHT22;1747;48.884;9.160;2023-05-31T04:47:26;16.30;69.80
3466;DHT22;1747;48.884;9.160;2023-05-31T04:49:53;16.30;69.80
3466;DHT22;1747;48.884;9.160;2023-05-31T04:52:22;16.30;69.70
3466;DHT22;1747;48.884;9.160;2023-05-31T04:54:53;16.40;70.20
3466;DHT22;1747;48.884;9.160;2023-05-31T04:57:20;16.40;70.10
3466;DHT22;1747;48.884;9.160;2023-05-31T04:59:47;16.40;70.30
3466;DHT22;1747;48.884;9.160;2023-05-31T05:02:14;16.40;70.50
3466;DHT22;1747;48.884;9.160;2023-05-31T05:04:41;16.50;70.30
3466;DHT22;1747;48.884;9.160;2023-05-31T05:07:07;16.50;70.30
3466;DHT22;1747;48.884;9.160;2023-05-31T05:09:35;16.50;70.00
3466;DHT22;1747;48.884;9.160;2023-05-31T05:12:03;16.60;69.50
3466;DHT22;1747;48.884;9.160;2023-05-31T05:14:30;16.70;69.50
3466;DHT22;1747;48.884;9.160;2023-05-31T05:16:57;16.70;69.10
3466;DHT22;1747;48.884;9.160;2023-05-31T05:19:24;16.80;69.00
3466;DHT22;1747;48.884;9.160;2023-05-31T05:21:51;16.80;69.10
3466;DHT22;1747;48.884;9.160;2023-05-31T05:24:18;16.80;69.40
3466;DHT22;1747;48.884;9.160;2023-05-31T05:26:45;16.80;70.20
3466;DHT22;1747;48.884;9.160;2023-05-31T05:29:13;16.90;70.30
3466;DHT22;1747;48.884;9.160;2023-05-31T05:31:40;16.90;70.40
3466;DHT22;1747;48.884;9.160;2023-05-31T05:34:07;17.00;70.70
3466;DHT22;1747;48.884;9.160;2023-05-31T05:36:35;17.10;69.70
3466;DHT22;1747;48.884;9.160;2023-05-31T05:39:02;17.20;69.60
3466;DHT22;1747;48.884;9.160;2023-05-31T05:41:31;17.20;69.10
3466;DHT22;1747;48.884;9.160;2023-05-31T05:43:58;17.30;69.40
3466;DHT22;1747;48.884;9.160;2023-05-31T05:46:26;17.30;69.60
3466;DHT22;1747;48.884;9.160;2023-05-31T05:48:53;17.30;70.80
3466;DHT22;1747;48.884;9.160;2023-05-31T05:51:20;17.40;70.20
3466;DHT22;1747;48.884;9.160;2023-05-31T05:53:47;17.40;69.20
3466;DHT22;1747;48.884;9.160;2023-05-31T05:56:14;17.50;68.50
3466;DHT22;1747;48.884;9.160;2023-05-31T05:58:43;17.60;68.60
3466;DHT22;1747;48.884;9.160;2023-05-31T06:01:11;17.60;69.50
3466;DHT22;1747;48.884;9.160;2023-05-31T06:03:45;17.60;69.00
3466;DHT22;1747;48.884;9.160;2023-05-31T06:06:12;17.70;68.90
3466;DHT22;1747;48.884;9.160;2023-05-31T06:08:40;17.70;69.20
3466;DHT22;1747;48.884;9.160;2023-05-31T06:11:07;17.80;68.10
3466;DHT22;1747;48.884;9.160;2023-05-31T06:13:33;17.80;68.60
3466;DHT22;1747;48.884;9.160;2023-05-31T06:16:01;17.80;68.70
3466;DHT22;1747;48.884;9.160;2023-05-31T06:18:28;17.90;68.40
3466;DHT22;1747;48.884;9.160;2023-05-31T06:20:56;18.00;68.00
3466;DHT22;1747;48.884;9.160;2023-05-31T06:23:23;18.00;68.70
3466;DHT22;1747;48.884;9.160;2023-05-31T06:25:50;18.00;69.40
3466;DHT22;1747;48.884;9.160;2023-05-31T06:28:16;18.00;68.90
3466;DHT22;1747;48.884;9.160;2023-05-31T06:30:43;18.10;69.00
3466;DHT22;1747;48.884;9.160;2023-05-31T06:33:11;18.20;69.10
3466;DHT22;1747;48.884;9.160;2023-05-31T06:35:38;18.30;68.80
3466;DHT22;1747;48.884;9.160;2023-05-31T06:38:08;18.40;69.20
3466;DHT22;1747;48.884;9.160;2023-05-31T06:40:42;18.50;69.60
3466;DHT22;1747;48.884;9.160;2023-05-31T06:43:09;18.60;68.00
3466;DHT22;1747;48.884;9.160;2023-05-31T06:45:36;18.80;67.60
3466;DHT22;1747;48.884;9.160;2023-05-31T06:48:07;18.80;67.50
3466;DHT22;1747;48.884;9.160;2023-05-31T06:50:33;18.90;67.20
3466;DHT22;1747;48.884;9.160;2023-05-31T06:53:00;18.90;67.60
3466;DHT22;1747;48.884;9.160;2023-05-31T06:55:28;19.00;67.80
3466;DHT22;1747;48.884;9.160;2023-05-31T06:57:55;19.00;67.50
3466;DHT22;1747;48.884;9.160;2023-05-31T07:00:22;19.10;67.50
3466;DHT22;1747;48.884;9.160;2023-05-31T07:02:49;19.20;67.40
3466;DHT22;1747;48.884;9.160;2023-05-31T07:05:16;19.40;66.90
3466;DHT22;1747;48.884;9.160;2023-05-31T07:07:43;19.50;67.90
3466;DHT22;1747;48.884;9.160;2023-05-31T07:10:10;19.60;67.80
3466;DHT22;1747;48.884;9.160;2023-05-31T07:12:38;19.70;68.00
3466;DHT22;1747;48.884;9.160;2023-05-31T07:15:06;19.80;67.40
3466;DHT22;1747;48.884;9.160;2023-05-31T07:17:34;19.80;68.60
3466;DHT22;1747;48.884;9.160;2023-05-31T07:20:01;19.90;68.30
3466;DHT22;1747;48.884;9.160;2023-05-31T07:22:29;20.10;67.00
3466;DHT22;1747;48.884;9.160;2023-05-31T07:24:55;20.20;67.50
3466;DHT22;1747;48.884;9.160;2023-05-31T07:27:22;20.20;67.20
3466;DHT22;1747;48.884;9.160;2023-05-31T07:29:50;20.30;67.30
3466;DHT22;1747;48.884;9.160;2023-05-31T07:32:17;20.40;66.50
3466;DHT22;1747;48.884;9.160;2023-05-31T07:34:44;20.50;67.10
3466;DHT22;1747;48.884;9.160;2023-05-31T07:37:11;20.60;66.70
3466;DHT22;1747;48.884;9.160;2023-05-31T07:39:37;20.70;66.70
3466;DHT22;1747;48.884;9.160;2023-05-31T07:42:05;20.70;66.10
3466;DHT22;1747;48.884;9.160;2023-05-31T07:44:32;20.80;66.40
3466;DHT22;1747;48.884;9.160;2023-05-31T07:47:00;20.90;67.00
3466;DHT22;1747;48.884;9.160;2023-05-31T07:49:27;21.00;66.70
3466;DHT22;1747;48.884;9.160;2023-05-31T07:51:54;21.10;64.20
3466;DHT22;1747;48.884;9.160;2023-05-31T07:54:20;21.20;65.50
3466;DHT22;1747;48.884;9.160;2023-05-31T07:56:47;21.30;65.10
3466;DHT22;1747;48.884;9.160;2023-05-31T07:59:14;21.20;67.30
3466;DHT22;1747;48.884;9.160;2023-05-31T08:01:42;21.20;66.50
3466;DHT22;1747;48.884;9.160;2023-05-31T08:04:11;21.30;66.90
3466;DHT22;1747;48.884;9.160;2023-05-31T08:06:38;21.40;67.70
3466;DHT22;1747;48.884;9.160;2023-05-31T08:09:07;21.60;66.60
3466;DHT22;1747;48.884;9.160;2023-05-31T08:11:34;21.70;65.00
3466;DHT22;1747;48.884;9.160;2023-05-31T08:14:01;21.80;63.60
3466;DHT22;1747;48.884;9.160;2023-05-31T08:16:29;21.90;63.10
3466;DHT22;1747;48.884;9.160;2023-05-31T08:18:56;22.00;63.00
3466;DHT22;1747;48.884;9.160;2023-05-31T08:21:24;22.00;62.90
3466;DHT22;1747;48.884;9.160;2023-05-31T08:23:51;22.10;63.00
3466;DHT22;1747;48.884;9.160;2023-05-31T08:26:18;22.10;63.90
3466;DHT22;1747;48.884;9.160;2023-05-31T08:28:44;22.30;63.00
3466;DHT22;1747;48.884;9.160;2023-05-31T08:31:11;22.40;63.80
3466;DHT22;1747;48.884;9.160;2023-05-31T08:33:52;22.40;64.90
3466;DHT22;1747;48.884;9.160;2023-05-31T08:36:19;22.60;63.70
3466;DHT22;1747;48.884;9.160;2023-05-31T08:38:47;22.60;63.20
3466;DHT22;1747;48.884;9.160;2023-05-31T08:41:14;22.70;63.00
3466;DHT22;1747;48.884;9.160;2023-05-31T08:43:41;22.80;62.40
3466;DHT22;1747;48.884;9.160;2023-05-31T08:46:09;22.80;63.50
3466;DHT22;1747;48.884;9.160;2023-05-31T08:48:41;22.90;62.50
3466;DHT22;1747;48.884;9.160;2023-05-31T08:51:09;22.90;61.70
3466;DHT22;1747;48.884;9.160;2023-05-31T08:53:37;23.00;62.30
3466;DHT22;1747;48.884;9.160;2023-05-31T08:56:06;23.00;62.50
3466;DHT22;1747;48.884;9.160;2023-05-31T08:58:34;23.10;60.70
3466;DHT22;1747;48.884;9.160;2023-05-31T09:01:02;23.10;62.50
3466;DHT22;1747;48.884;9.160;2023-05-31T09:03:31;23.20;60.70
3466;DHT22;1747;48.884;9.160;2023-05-31T09:05:58;23.10;62.50
3466;DHT22;1747;48.884;9.160;2023-05-31T09:08:25;23.20;61.60
3466;DHT22;1747;48.884;9.160;2023-05-31T09:10:52;23.30;60.90
3466;DHT22;1747;48.884;9.160;2023-05-31T09:13:20;23.30;62.70
3466;DHT22;1747;48.884;9.160;2023-05-31T09:15:48;23.30;61.60
3466;DHT22;1747;48.884;9.160;2023-05-31T09:18:18;23.50;60.90
3466;DHT22;1747;48.884;9.160;2023-05-31T09:20:46;23.50;60.90
3466;DHT22;1747;48.884;9.160;2023-05-31T09:23:14;23.60;61.30
3466;DHT22;1747;48.884;9.160;2023-05-31T09:25:44;23.60;61.10
3466;DHT22;1747;48.884;9.160;2023-05-31T09:28:11;23.80;62.60
3466;DHT22;1747;48.884;9.160;2023-05-31T09:30:39;23.80;61.50
3466;DHT22;1747;48.884;9.160;2023-05-31T09:33:06;23.90;59.60
3466;DHT22;1747;48.884;9.160;2023-05-31T09:35:34;23.90;60.80
3466;DHT22;1747;48.884;9.160;2023-05-31T09:38:04;24.00;61.30
3466;DHT22;1747;48.884;9.160;2023-05-31T09:40:32;24.10;60.40
3466;DHT22;1747;48.884;9.160;2023-05-31T09:42:59;24.20;58.40
3466;DHT22;1747;48.884;9.160;2023-05-31T09:45:26;24.30;58.40
3466;DHT22;1747;48.884;9.160;2023-05-31T09:47:55;24.40;58.00
3466;DHT22;1747;48.884;9.160;2023-05-31T09:50:23;24.40;58.40
3466;DHT22;1747;48.884;9.160;2023-05-31T09:52:56;24.40;57.10
3466;DHT22;1747;48.884;9.160;2023-05-31T09:55:24;24.40;58.30
3466;DHT22;1747;48.884;9.160;2023-05-31T09:57:52;24.50;58.00
3466;DHT22;1747;48.884;9.160;2023-05-31T10:00:20;24.50;57.80
3466;DHT22;1747;48.884;9.160;2023-05-31T10:02:48;24.60;57.40
3466;DHT22;1747;48.884;9.160;2023-05-31T10:05:18;24.60;56.60
3466;DHT22;1747;48.884;9.160;2023-05-31T10:07:47;24.70;56.00
3466;DHT22;1747;48.884;9.160;2023-05-31T10:10:14;24.70;55.70
3466;DHT22;1747;48.884;9.160;2023-05-31T10:12:47;24.70;55.60
3466;DHT22;1747;48.884;9.160;2023-05-31T10:15:17;24.70;55.80
3466;DHT22;1747;48.884;9.160;2023-05-31T10:17:50;24.70;56.00
3466;DHT22;1747;48.884;9.160;2023-05-31T10:20:21;24.80;56.20
3466;DHT22;1747;48.884;9.160;2023-05-31T10:22:53;24.80;56.30
3466;DHT22;1747;48.884;9.160;2023-05-31T10:25:27;24.90;56.10
3466;DHT22;1747;48.884;9.160;2023-05-31T10:28:00;25.00;55.80
3466;DHT22;1747;48.884;9.160;2023-05-31T10:30:31;25.00;56.00
3466;DHT22;1747;48.884;9.160;2023-05-31T10:33:03;25.00;56.40
3466;DHT22;1747;48.884;9.160;2023-05-31T10:35:34;25.10;56.00
3466;DHT22;1747;48.884;9.160;2023-05-31T10:38:02;25.10;55.80
3466;DHT22;1747;48.884;9.160;2023-05-31T10:40:33;25.10;55.70
3466;DHT22;1747;48.884;9.160;2023-05-31T10:43:07;25.10;56.20
3466;DHT22;1747;48.884;9.160;2023-05-31T10:45:38;25.10;56.50
3466;DHT22;1747;48.884;9.160;2023-05-31T10:48:20;25.10;57.20
3466;DHT22;1747;48.884;9.160;2023-05-31T10:50:56;25.20;56.10
3466;DHT22;1747;48.884;9.160;2023-05-31T10:53:28;25.30;55.40
3466;DHT22;1747;48.884;9.160;2023-05-31T10:56:01;25.20;56.50
3466;DHT22;1747;48.884;9.160;2023-05-31T10:58:30;25.40;56.60
3466;DHT22;1747;48.884;9.160;2023-05-31T11:01:02;25.50;55.80
3466;DHT22;1747;48.884;9.160;2023-05-31T11:03:31;25.60;55.60
3466;DHT22;1747;48.884;9.160;2023-05-31T11:06:02;25.70;54.50
3466;DHT22;1747;48.884;9.160;2023-05-31T11:08:29;25.70;55.20
3466;DHT22;1747;48.884;9.160;2023-05-31T11:11:27;25.70;55.80
3466;DHT22;1747;48.884;9.160;2023-05-31T11:14:01;25.90;55.30
3466;DHT22;1747;48.884;9.160;2023-05-31T11:16:30;25.90;55.60
3466;DHT22;1747;48.884;9.160;2023-05-31T11:19:02;25.90;56.10
3466;DHT22;1747;48.884;9.160;2023-05-31T11:21:47;26.00;54.20
3466;DHT22;1747;48.884;9.160;2023-05-31T11:24:27;25.90;54.90
3466;DHT22;1747;48.884;9.160;2023-05-31T11:26:56;26.00;54.20
3466;DHT22;1747;48.884;9.160;2023-05-31T11:29:23;26.10;55.40
3466;DHT22;1747;48.884;9.160;2023-05-31T11:31:58;26.10;55.00
3466;DHT22;1747;48.884;9.160;2023-05-31T11:34:26;26.30;54.30
3466;DHT22;1747;48.884;9.160;2023-05-31T11:36:59;26.30;56.30
3466;DHT22;1747;48.884;9.160;2023-05-31T11:39:26;26.50;53.80
3466;DHT22;1747;48.884;9.160;2023-05-31T11:41:53;26.50;52.30
3466;DHT22;1747;48.884;9.160;2023-05-31T11:44:26;26.70;52.60
3466;DHT22;1747;48.884;9.160;2023-05-31T11:46:59;26.90;53.40
3466;DHT22;1747;48.884;9.160;2023-05-31T11:49:29;27.10;51.20
3466;DHT22;1747;48.884;9.160;2023-05-31T11:51:57;27.30;50.60
3466;DHT22;1747;48.884;9.160;2023-05-31T11:54:26;27.60;51.40
3466;DHT22;1747;48.884;9.160;2023-05-31T11:57:02;28.00;50.10
3466;DHT22;1747;48.884;9.160;2023-05-31T11:59:30;28.40;50.10
3466;DHT22;1747;48.884;9.160;2023-05-31T12:01:59;28.70;49.00
3466;DHT22;1747;48.884;9.160;2023-05-31T12:04:30;29.10;49.60
3466;DHT22;1747;48.884;9.160;2023-05-31T12:06:59;29.40;49.90
3466;DHT22;1747;48.884;9.160;2023-05-31T12:09:26;29.70;48.50
3466;DHT22;1747;48.884;9.160;2023-05-31T12:11:54;30.10;48.50
3466;DHT22;1747;48.884;9.160;2023-05-31T12:14:22;30.50;48.70
3466;DHT22;1747;48.884;9.160;2023-05-31T12:16:50;30.80;47.40
3466;DHT22;1747;48.884;9.160;2023-05-31T12:19:17;31.20;47.70
3466;DHT22;1747;48.884;9.160;2023-05-31T12:21:44;31.70;47.60
3466;DHT22;1747;48.884;9.160;2023-05-31T12:24:13;31.90;45.70
3466;DHT22;1747;48.884;9.160;2023-05-31T12:26:42;31.90;45.40
3466;DHT22;1747;48.884;9.160;2023-05-31T12:29:10;32.00;45.30
3466;DHT22;1747;48.884;9.160;2023-05-31T12:31:38;32.00;45.10
3466;DHT22;1747;48.884;9.160;2023-05-31T12:34:09;32.10;44.80
3466;DHT22;1747;48.884;9.160;2023-05-31T12:36:41;32.30;45.60
3466;DHT22;1747;48.884;9.160;2023-05-31T12:39:09;32.50;44.40
3466;DHT22;1747;48.884;9.160;2023-05-31T12:41:41;32.40;44.10
3466;DHT22;1747;48.884;9.160;2023-05-31T12:44:08;32.70;45.00
3466;DHT22;1747;48.884;9.160;2023-05-31T12:46:39;32.20;44.50
3466;DHT22;1747;48.884;9.160;2023-05-31T12:49:13;32.60;45.10
3466;DHT22;1747;48.884;9.160;2023-05-31T12:51:41;33.00;44.10
3466;DHT22;1747;48.884;9.160;2023-05-31T12:54:11;33.30;43.40
3466;DHT22;1747;48.884;9.160;2023-05-31T12:56:40;33.70;43.90
3466;DHT22;1747;48.884;9.160;2023-05-31T12:59:07;33.90;44.10
3466;DHT22;1747;48.884;9.160;2023-05-31T13:01:35;33.90;41.20
3466;DHT22;1747;48.884;9.160;2023-05-31T13:04:04;34.10;41.80
3466;DHT22;1747;48.884;9.160;2023-05-31T13:06:32;33.70;42.00
3466;DHT22;1747;48.884;9.160;2023-05-31T13:08:59;33.70;42.20
3466;DHT22;1747;48.884;9.160;2023-05-31T13:11:27;33.90;41.40
3466;DHT22;1747;48.884;9.160;2023-05-31T13:13:55;34.10;41.20
3466;DHT22;1747;48.884;9.160;2023-05-31T13:16:22;34.50;41.60
3466;DHT22;1747;48.884;9.160;2023-05-31T13:18:49;34.30;40.70
3466;DHT22;1747;48.884;9.160;2023-05-31T13:21:16;34.40;42.40
3466;DHT22;1747;48.884;9.160;2023-05-31T13:23:43;34.50;40.30
3466;DHT22;1747;48.884;9.160;2023-05-31T13:26:10;34.70;40.70
3466;DHT22;1747;48.884;9.160;2023-05-31T13:28:36;34.60;40.60
3466;DHT22;1747;48.884;9.160;2023-05-31T13:31:05;35.00;40.80
3466;DHT22;1747;48.884;9.160;2023-05-31T13:33:32;35.10;39.60
3466;DHT22;1747;48.884;9.160;2023-05-31T13:35:58;35.20;39.40
3466;DHT22;1747;48.884;9.160;2023-05-31T13:38:25;35.10;39.70
3466;DHT22;1747;48.884;9.160;2023-05-31T13:40:52;35.00;40.70
3466;DHT22;1747;48.884;9.160;2023-05-31T13:43:20;35.30;39.90
3466;DHT22;1747;48.884;9.160;2023-05-31T13:45:47;35.70;39.20
3466;DHT22;1747;48.884;9.160;2023-05-31T13:48:15;35.90;38.80
3466;DHT22;1747;48.884;9.160;2023-05-31T13:50:42;35.70;38.70
3466;DHT22;1747;48.884;9.160;2023-05-31T13:53:09;35.70;38.10
3466;DHT22;1747;48.884;9.160;2023-05-31T13:55:36;35.70;38.60
3466;DHT22;1747;48.884;9.160;2023-05-31T13:58:03;35.90;38.40
3466;DHT22;1747;48.884;9.160;2023-05-31T14:00:30;35.90;39.40
3466;DHT22;1747;48.884;9.160;2023-05-31T14:02:57;35.70;38.30
3466;DHT22;1747;48.884;9.160;2023-05-31T14:05:26;36.00;37.80
3466;DHT22;1747;48.884;9.160;2023-05-31T14:07:53;36.10;39.50
3466;DHT22;1747;48.884;9.160;2023-05-31T14:10:20;36.20;38.30
3466;DHT22;1747;48.884;9.160;2023-05-31T14:12:47;36.30;38.20
3466;DHT22;1747;48.884;9.160;2023-05-31T14:15:14;36.70;38.90
3466;DHT22;1747;48.884;9.160;2023-05-31T14:17:41;36.80;38.40
3466;DHT22;1747;48.884;9.160;2023-05-31T14:20:08;36.90;37.80
3466;DHT22;1747;48.884;9.160;2023-05-31T14:22:37;36.70;37.60
3466;DHT22;1747;48.884;9.160;2023-05-31T14:25:04;37.00;39.60
3466;DHT22;1747;48.884;9.160;2023-05-31T14:27:31;37.00;38.50
3466;DHT22;1747;48.884;9.160;2023-05-31T14:29:58;37.00;36.90
3466;DHT22;1747;48.884;9.160;2023-05-31T14:32:25;36.80;36.80
3466;DHT22;1747;48.884;9.160;2023-05-31T14:34:52;37.10;37.20
3466;DHT22;1747;48.884;9.160;2023-05-31T14:37:19;36.80;38.80
3466;DHT22;1747;48.884;9.160;2023-05-31T14:39:47;36.90;38.00
3466;DHT22;1747;48.884;9.160;2023-05-31T14:42:14;37.10;38.00
3466;DHT22;1747;48.884;9.160;2023-05-31T14:44:41;37.00;37.70
3466;DHT22;1747;48.884;9.160;2023-05-31T14:47:08;37.40;37.20
3466;DHT22;1747;48.884;9.160;2023-05-31T14:49:34;37.40;36.60
3466;DHT22;1747;48.884;9.160;2023-05-31T14:52:01;37.40;36.60
3466;DHT22;1747;48.884;9.160;2023-05-31T14:54:28;37.40;36.20
3466;DHT22;1747;48.884;9.160;2023-05-31T14:56:56;37.10;36.70
3466;DHT22;1747;48.884;9.160;2023-05-31T14:59:23;37.30;36.90
3466;DHT22;1747;48.884;9.160;2023-05-31T15:01:53;37.30;36.30
3466;DHT22;1747;48.884;9.160;2023-05-31T15:04:23;36.80;36.90
3466;DHT22;1747;48.884;9.160;2023-05-31T15:06:50;36.80;37.20
3466;DHT22;1747;48.884;9.160;2023-05-31T15:09:18;36.90;37.00
3466;DHT22;1747;48.884;9.160;2023-05-31T15:11:45;37.10;36.40
3466;DHT22;1747;48.884;9.160;2023-05-31T15:14:13;36.60;36.20
3466;DHT22;1747;48.884;9.160;2023-05-31T15:16:40;36.40;36.30
3466;DHT22;1747;48.884;9.160;2023-05-31T15:19:07;36.40;36.80
3466;DHT22;1747;48.884;9.160;2023-05-31T15:21:34;36.60;37.10
3466;DHT22;1747;48.884;9.160;2023-05-31T15:24:02;36.60;37.30
3466;DHT22;1747;48.884;9.160;2023-05-31T15:26:29;36.50;36.40
3466;DHT22;1747;48.884;9.160;2023-05-31T15:28:56;36.40;36.20
3466;DHT22;1747;48.884;9.160;2023-05-31T15:31:24;35.90;36.60
3466;DHT22;1747;48.884;9.160;2023-05-31T15:33:51;35.40;36.90
3466;DHT22;1747;48.884;9.160;2023-05-31T15:36:18;34.90;36.90
3466;DHT22;1747;48.884;9.160;2023-05-31T15:38:45;34.50;37.40
3466;DHT22;1747;48.884;9.160;2023-05-31T15:41:12;34.30;38.10
3466;DHT22;1747;48.884;9.160;2023-05-31T15:43:39;34.50;38.70
3466;DHT22;1747;48.884;9.160;2023-05-31T15:46:05;34.40;38.80
3466;DHT22;1747;48.884;9.160;2023-05-31T15:48:34;34.60;38.80
3466;DHT22;1747;48.884;9.160;2023-05-31T15:51:00;34.30;38.90
3466;DHT22;1747;48.884;9.160;2023-05-31T15:53:28;34.00;37.90
3466;DHT22;1747;48.884;9.160;2023-05-31T15:55:55;33.40;38.30
3466;DHT22;1747;48.884;9.160;2023-05-31T15:58:22;32.90;38.70
3466;DHT22;1747;48.884;9.160;2023-05-31T16:00:49;32.70;39.60
3466;DHT22;1747;48.884;9.160;2023-05-31T16:03:16;32.40;39.20
3466;DHT22;1747;48.884;9.160;2023-05-31T16:05:44;32.00;39.30
3466;DHT22;1747;48.884;9.160;2023-05-31T16:08:11;31.40;40.00